Time;durP1;ratioP1;P1;durP2;ratioP2;P2;SDS_P1;SDS_P2;PMS_P1;PMS_P2;Temp;Humidity;BMP_temperature;BMP_pressure;BME280_temperature;BME280_humidity;BME280_pressure;Samples;Min_cycle;Max_cycle;Signal;HPM_P1;HPM_P2
2022/11/02 00:01:20;;;;;;;5.27;2.60;;;13.20;73.60;;;-142.21;100.00;112049.66;5046895;28;20434;-73
2022/11/02 00:03:49;;;;;;;4.60;2.50;;;13.20;73.50;;;-142.21;100.00;112049.66;5033147;28;20767;-73
2022/11/02 00:06:16;;;;;;;2.57;2.30;;;13.10;73.90;;;-142.21;100.00;112049.66;5030955;28;20539;-72
2022/11/02 00:08:43;;;;;;;2.83;2.30;;;13.10;73.60;;;-142.21;100.00;112049.66;5045129;28;20489;-73
2022/11/02 00:11:11;;;;;;;4.40;2.50;;;13.10;73.60;;;-142.21;100.00;112049.66;5050562;28;20426;-73
2022/11/02 00:13:38;;;;;;;4.97;2.60;;;13.10;74.70;;;-142.21;100.00;112049.66;5039559;28;20757;-72
2022/11/02 00:16:13;;;;;;;3.67;2.60;;;13.10;74.00;;;-142.21;100.00;112049.66;5032841;28;20449;-73
2022/11/02 00:18:52;;;;;;;4.70;2.90;;;13.00;74.40;;;-142.21;100.00;112049.66;5022105;28;20452;-72
2022/11/02 00:21:21;;;;;;;3.83;2.50;;;13.00;74.50;;;-142.21;100.00;112049.66;5019567;28;20445;-74
2022/11/02 00:23:49;;;;;;;5.87;2.70;;;12.90;74.70;;;-142.21;100.00;112049.66;5028492;28;20481;-73
2022/11/02 00:26:18;;;;;;;5.40;2.83;;;12.90;74.80;;;-142.21;100.00;112049.66;5022345;28;20632;-73
2022/11/02 00:28:45;;;;;;;6.27;2.80;;;12.90;75.00;;;-142.21;100.00;112049.66;5030512;28;20449;-72
2022/11/02 00:31:12;;;;;;;3.53;2.70;;;12.90;74.60;;;-142.21;100.00;112049.66;5028848;28;20454;-73
2022/11/02 00:33:40;;;;;;;3.77;2.47;;;12.90;74.40;;;-142.21;100.00;112049.66;5014503;28;20846;-73
2022/11/02 00:36:09;;;;;;;4.83;2.53;;;12.90;74.60;;;-142.21;100.00;112049.66;5014158;28;20536;-73
2022/11/02 00:38:36;;;;;;;3.90;2.50;;;12.90;74.70;;;-142.21;100.00;112049.66;5015609;28;20474;-72
2022/11/02 00:41:03;;;;;;;5.90;3.63;;;12.90;74.30;;;-142.21;100.00;112049.66;5017908;28;21032;-73
2022/11/02 00:43:31;;;;;;;3.50;2.40;;;12.90;74.20;;;-142.21;100.00;112049.66;5033609;28;20448;-73
2022/11/02 00:45:59;;;;;;;3.80;2.63;;;12.90;75.20;;;-142.21;100.00;112049.66;5032331;28;20498;-73
2022/11/02 00:48:27;;;;;;;4.90;2.60;;;12.90;74.50;;;-142.21;100.00;112049.66;5028734;28;20499;-73
2022/11/02 00:50:54;;;;;;;4.83;2.87;;;12.90;74.40;;;-142.21;100.00;112049.66;4984968;28;20450;-74
2022/11/02 00:53:23;;;;;;;5.33;2.70;;;12.90;74.40;;;-142.21;100.00;112049.66;5020936;28;20457;-73
2022/11/02 00:55:52;;;;;;;5.70;3.10;;;12.90;74.40;;;-142.21;100.00;112049.66;5032082;28;20442;-73
2022/11/02 00:58:21;;;;;;;4.63;2.37;;;12.90;75.10;;;-142.21;100.00;112049.66;4963795;28;20437;-74
2022/11/02 01:00:48;;;;;;;2.73;2.27;;;12.90;74.20;;;-142.21;100.00;112049.66;5031656;28;20553;-73
2022/11/02 01:03:15;;;;;;;4.77;2.50;;;12.80;74.40;;;-142.21;100.00;112049.66;5024557;28;20497;-73
2022/11/02 01:05:42;;;;;;;4.43;2.90;;;12.80;74.80;;;-142.21;100.00;112049.66;5019345;28;20540;-73
2022/11/02 01:08:09;;;;;;;4.50;2.63;;;12.80;75.40;;;-142.21;100.00;112049.66;5025213;28;20472;-72
2022/11/02 01:10:39;;;;;;;4.53;2.67;;;12.80;75.20;;;-142.21;100.00;112049.66;4990818;28;1089310;-72
2022/11/02 01:13:07;;;;;;;5.90;3.57;;;12.80;75.30;;;-142.21;100.00;112049.66;5034483;28;20252;-72
2022/11/02 01:15:36;;;;;;;4.77;2.60;;;12.80;75.40;;;-142.21;100.00;112049.66;5018106;28;20533;-72
2022/11/02 01:18:04;;;;;;;5.13;3.00;;;12.80;75.40;;;-142.21;100.00;112049.66;5025964;28;20453;-73
2022/11/02 01:20:31;;;;;;;5.27;3.00;;;12.80;75.40;;;-142.21;100.00;112049.66;5030243;28;21157;-72
2022/11/02 01:22:58;;;;;;;4.40;3.63;;;12.70;76.10;;;-142.21;100.00;112049.66;5030482;28;20454;-72
2022/11/02 01:25:26;;;;;;;4.60;2.97;;;12.70;76.40;;;-142.21;100.00;112049.66;5024964;28;20503;-72
2022/11/02 01:27:54;;;;;;;4.60;2.90;;;12.60;76.50;;;-142.21;100.00;112049.66;5010355;28;20441;-73
2022/11/02 01:30:21;;;;;;;3.93;2.93;;;12.60;76.40;;;-142.21;100.00;112049.66;5016255;28;20441;-72
2022/11/02 01:32:48;;;;;;;3.43;2.60;;;12.70;76.30;;;-142.21;100.00;112049.66;5015595;28;20442;-72
2022/11/02 01:35:16;;;;;;;3.93;2.90;;;12.70;75.90;;;-142.21;100.00;112049.66;5027503;28;20442;-72
2022/11/02 01:37:43;;;;;;;3.50;2.50;;;12.70;76.10;;;-142.21;100.00;112049.66;4983556;28;20441;-74
2022/11/02 01:40:11;;;;;;;5.70;2.97;;;12.70;76.20;;;-142.21;100.00;112049.66;5015530;28;20442;-73
2022/11/02 01:42:38;;;;;;;3.13;2.83;;;12.70;76.00;;;-142.21;100.00;112049.66;5014637;28;20446;-73
2022/11/02 01:45:13;;;;;;;5.40;2.93;;;12.60;76.50;;;-142.21;100.00;112049.66;5030297;28;20933;-73
2022/11/02 01:47:45;;;;;;;5.70;3.03;;;12.50;76.90;;;-142.21;100.00;112049.66;5019905;28;20460;-72
2022/11/02 01:50:20;;;;;;;4.33;2.87;;;12.50;76.90;;;-142.21;100.00;112049.66;5015974;28;20547;-73
2022/11/02 01:52:47;;;;;;;5.37;2.77;;;12.50;77.30;;;-142.21;100.00;112049.66;5022954;28;20556;-73
2022/11/02 01:55:22;;;;;;;3.80;2.57;;;12.60;77.20;;;-142.21;100.00;112049.66;5032095;28;20445;-73
2022/11/02 01:57:59;;;;;;;4.53;2.90;;;12.60;77.30;;;-142.21;100.00;112049.66;5031752;28;20443;-73
2022/11/02 02:00:27;;;;;;;7.93;3.33;;;12.60;77.10;;;-142.21;100.00;112049.66;5030075;28;20790;-73
2022/11/02 02:03:02;;;;;;;3.27;2.60;;;12.70;77.00;;;-142.21;100.00;112049.66;4972225;28;20438;-72
2022/11/02 02:05:33;;;;;;;3.43;2.70;;;12.70;76.60;;;-142.21;100.00;112049.66;5024681;28;20473;-72
2022/11/02 02:08:03;;;;;;;6.80;2.80;;;12.80;76.50;;;-142.21;100.00;112049.66;5018310;28;20446;-73
2022/11/02 02:10:33;;;;;;;5.00;2.57;;;12.80;76.50;;;-142.21;100.00;112049.66;5023667;28;20473;-72
2022/11/02 02:13:00;;;;;;;3.73;2.60;;;12.80;76.40;;;-142.21;100.00;112049.66;5024736;28;20434;-72
2022/11/02 02:15:46;;;;;;;6.33;3.00;;;12.80;76.30;;;-142.21;100.00;112049.66;5022972;28;20479;-73
2022/11/02 02:18:24;;;;;;;4.07;2.40;;;12.80;76.40;;;-142.21;100.00;112049.66;5022621;28;20454;-73
2022/11/02 02:21:12;;;;;;;2.83;2.53;;;12.90;76.50;;;-142.21;100.00;112049.66;5016384;28;20461;-73
2022/11/02 02:24:18;;;;;;;6.40;2.70;;;12.90;77.10;;;-142.21;100.00;112049.66;5026285;28;20763;-73
2022/11/02 02:27:11;;;;;;;3.63;2.20;;;12.90;76.30;;;-142.21;100.00;112049.66;5013140;28;20466;-72
2022/11/02 02:29:53;;;;;;;4.43;2.43;;;12.90;76.50;;;-142.21;100.00;112049.66;5016244;28;20433;-72
2022/11/02 02:32:31;;;;;;;4.60;2.60;;;13.00;76.50;;;-142.21;100.00;112049.66;5030598;28;20440;-73
2022/11/02 02:35:22;;;;;;;4.10;2.60;;;13.00;76.40;;;-142.21;100.00;112049.66;5014547;28;20444;-72
2022/11/02 02:37:57;;;;;;;4.37;2.57;;;13.00;76.30;;;-142.21;100.00;112049.66;5028623;28;20558;-73
2022/11/02 02:40:33;;;;;;;5.97;2.80;;;13.00;76.60;;;-142.21;100.00;112049.66;5022515;28;20441;-73
2022/11/02 02:43:10;;;;;;;3.27;2.53;;;13.00;76.70;;;-142.21;100.00;112049.66;5018910;28;20442;-73
2022/11/02 02:45:44;;;;;;;3.07;2.00;;;13.00;76.60;;;-142.21;100.00;112049.66;5024846;28;20469;-73
2022/11/02 02:48:18;;;;;;;3.37;2.30;;;13.00;77.20;;;-142.21;100.00;112049.66;5023153;28;20474;-73
2022/11/02 02:50:49;;;;;;;4.20;2.50;;;13.00;76.70;;;-142.21;100.00;112049.66;5015876;28;20454;-73
2022/11/02 02:53:22;;;;;;;4.50;2.47;;;13.00;76.80;;;-142.21;100.00;112049.66;5022184;28;20499;-73
2022/11/02 02:55:52;;;;;;;4.63;2.73;;;13.00;76.90;;;-142.21;100.00;112049.66;5031246;28;20440;-73
2022/11/02 02:58:26;;;;;;;5.20;2.77;;;13.10;77.00;;;-142.21;100.00;112049.66;5023677;28;20441;-72
2022/11/02 03:01:00;;;;;;;4.80;2.70;;;13.00;76.80;;;-142.21;100.00;112049.66;5021554;28;20448;-73
2022/11/02 03:03:30;;;;;;;5.07;2.50;;;13.00;76.90;;;-142.21;100.00;112049.66;5012211;28;20427;-74
2022/11/02 03:06:14;;;;;;;5.93;2.83;;;13.00;77.00;;;-142.21;100.00;112049.66;5012516;28;20954;-73
2022/11/02 03:08:51;;;;;;;2.97;2.60;;;13.00;77.00;;;-142.21;100.00;112049.66;5013493;28;20482;-74
2022/11/02 03:11:25;;;;;;;3.10;2.53;;;13.00;76.90;;;-142.21;100.00;112049.66;5026355;28;20515;-73
2022/11/02 03:14:16;;;;;;;3.73;2.53;;;13.00;76.90;;;-142.21;100.00;112049.66;5032535;28;20437;-73
2022/11/02 03:17:06;;;;;;;5.07;2.93;;;13.00;77.00;;;-142.21;100.00;112049.66;5028797;28;20438;-73
2022/11/02 03:19:44;;;;;;;2.87;2.57;;;13.00;76.80;;;-142.21;100.00;112049.66;4993031;28;20450;-73
2022/11/02 03:22:29;;;;;;;3.70;2.50;;;13.00;76.70;;;-142.21;100.00;112049.66;5025959;28;20441;-73
2022/11/02 03:25:07;;;;;;;6.03;2.50;;;13.00;76.90;;;-142.21;100.00;112049.66;5014252;28;20470;-73
2022/11/02 03:27:44;;;;;;;3.10;2.40;;;12.90;76.80;;;-142.21;100.00;112049.66;5017636;28;20441;-73
2022/11/02 03:30:17;;;;;;;3.50;2.47;;;13.00;77.00;;;-142.21;100.00;112049.66;5021711;28;20449;-73
2022/11/02 03:32:56;;;;;;;4.17;2.47;;;12.90;76.90;;;-142.21;100.00;112049.66;5031180;28;20444;-73
2022/11/02 03:35:33;;;;;;;2.60;2.40;;;12.90;77.00;;;-142.21;100.00;112049.66;5023440;28;20438;-73
2022/11/02 03:38:07;;;;;;;5.27;2.80;;;12.90;77.20;;;-142.21;100.00;112049.66;5019972;28;20441;-73
2022/11/02 03:40:45;;;;;;;6.17;2.97;;;12.70;77.30;;;-142.21;100.00;112049.66;5030142;28;20445;-72
2022/11/02 03:43:14;;;;;;;3.43;2.60;;;12.60;77.70;;;-142.21;100.00;112049.66;5047381;28;20417;-73
2022/11/02 03:45:49;;;;;;;6.10;2.87;;;12.60;78.20;;;-142.21;100.00;112049.66;5039658;28;20480;-73
2022/11/02 03:48:21;;;;;;;5.20;2.80;;;12.60;78.90;;;-142.21;100.00;112049.66;5028446;28;20473;-73
2022/11/02 03:50:52;;;;;;;4.63;2.80;;;12.60;77.80;;;-142.21;100.00;112049.66;5046058;28;20453;-73
2022/11/02 03:53:26;;;;;;;4.43;2.83;;;12.70;77.80;;;-142.21;100.00;112049.66;5045286;28;20489;-74
2022/11/02 03:56:02;;;;;;;4.10;2.37;;;12.70;77.40;;;-142.21;100.00;112049.66;5036051;28;20437;-73
2022/11/02 03:58:30;;;;;;;4.07;2.90;;;12.70;77.00;;;-142.21;100.00;112049.66;5020282;28;21848;-73
2022/11/02 04:01:03;;;;;;;3.10;2.30;;;12.70;76.90;;;-142.21;100.00;112049.66;5015242;28;20456;-73
2022/11/02 04:03:34;;;;;;;3.53;2.60;;;12.60;76.50;;;-142.21;100.00;112049.66;5022001;28;20441;-73
2022/11/02 04:06:01;;;;;;;3.67;2.63;;;12.60;76.40;;;-142.21;100.00;112049.66;5031401;28;20461;-73
2022/11/02 04:08:35;;;;;;;3.03;2.30;;;12.60;76.30;;;-142.21;100.00;112049.66;5016117;28;20453;-73
2022/11/02 04:16:33;;;;;;;2.50;2.30;;;12.50;76.20;;;-142.21;100.00;112049.66;5012508;28;20842;-73
2022/11/02 04:27:11;;;;;;;3.10;2.40;;;12.40;76.10;;;-142.21;100.00;112049.66;5015201;28;20508;-72
2022/11/02 04:29:38;;;;;;;2.27;2.00;;;12.40;76.10;;;-142.21;100.00;112049.66;5016713;28;20448;-73
2022/11/02 04:32:06;;;;;;;3.33;2.10;;;12.40;76.10;;;-142.21;100.00;112049.66;5020608;28;20446;-74
2022/11/02 04:34:33;;;;;;;5.40;2.30;;;12.40;76.20;;;-142.21;100.00;112049.66;5017084;28;20472;-73
2022/11/02 04:37:00;;;;;;;3.57;2.40;;;12.40;76.60;;;-142.21;100.00;112049.66;5019103;28;20495;-73
2022/11/02 04:39:27;;;;;;;5.37;2.30;;;12.40;76.60;;;-142.21;100.00;112049.66;5026299;28;20445;-72
2022/11/02 04:41:54;;;;;;;3.30;2.10;;;12.40;76.60;;;-142.21;100.00;112049.66;5033712;28;20467;-74
2022/11/02 04:44:21;;;;;;;3.13;2.20;;;12.40;76.50;;;-142.21;100.00;112049.66;5020035;28;20490;-73
2022/11/02 04:46:48;;;;;;;3.23;1.90;;;12.40;76.50;;;-142.21;100.00;112049.66;5034210;28;21529;-73
2022/11/02 04:49:16;;;;;;;4.63;3.07;;;12.40;76.50;;;-142.21;100.00;112049.66;5026615;28;20795;-72
2022/11/02 04:51:44;;;;;;;4.50;2.40;;;12.40;76.60;;;-142.21;100.00;112049.66;5027789;28;20537;-73
2022/11/02 04:54:12;;;;;;;4.63;2.20;;;12.40;76.70;;;-142.21;100.00;112049.66;5018091;28;20973;-73
2022/11/02 04:56:39;;;;;;;4.93;2.03;;;12.50;77.00;;;-142.21;100.00;112049.66;5026786;28;20448;-73
2022/11/02 04:59:06;;;;;;;5.47;2.10;;;12.50;78.20;;;-142.21;100.00;112049.66;5025041;28;20530;-73
2022/11/02 05:01:33;;;;;;;7.13;2.30;;;12.60;81.00;;;-142.21;100.00;112049.66;5029118;28;20449;-73
2022/11/02 05:04:00;;;;;;;4.90;2.23;;;12.70;83.20;;;-142.21;100.00;112049.66;5026901;28;20447;-72
2022/11/02 05:06:28;;;;;;;4.23;2.03;;;12.80;85.40;;;-142.21;100.00;112049.66;4993581;28;20491;-73
2022/11/02 05:08:56;;;;;;;5.63;2.17;;;13.10;85.90;;;-142.21;100.00;112049.66;5026036;28;20497;-73
2022/11/02 05:11:23;;;;;;;6.97;2.57;;;13.30;86.00;;;-142.21;100.00;112049.66;5014087;28;20980;-73
2022/11/02 05:13:52;;;;;;;5.63;2.40;;;13.40;86.50;;;-142.21;100.00;112049.66;5016954;28;20458;-72
2022/11/02 05:16:19;;;;;;;4.07;2.50;;;13.60;86.10;;;-142.21;100.00;112049.66;5032237;28;20450;-73
2022/11/02 05:18:46;;;;;;;8.17;2.47;;;13.80;86.00;;;-142.21;100.00;112049.66;5025475;28;20449;-73
2022/11/02 05:21:14;;;;;;;6.97;2.27;;;13.90;85.60;;;-142.21;100.00;112049.66;5032969;28;20449;-73
2022/11/02 05:23:41;;;;;;;6.47;2.00;;;14.10;85.40;;;-142.21;100.00;112049.66;5023937;28;20450;-73
2022/11/02 05:26:12;;;;;;;4.87;2.20;;;14.20;85.00;;;-142.21;100.00;112049.66;4991376;28;20588;-73
2022/11/02 05:28:39;;;;;;;5.00;2.07;;;14.20;85.00;;;-142.21;100.00;112049.66;5029650;28;20429;-73
2022/11/02 05:31:07;;;;;;;8.27;2.23;;;14.30;84.80;;;-142.21;100.00;112049.66;4973744;28;20959;-74
2022/11/02 05:33:35;;;;;;;9.53;2.20;;;14.40;84.70;;;-142.21;100.00;112049.66;5032466;28;20445;-73
2022/11/02 05:36:02;;;;;;;7.93;2.20;;;14.50;84.80;;;-142.21;100.00;112049.66;5023196;28;21009;-73
2022/11/02 05:38:29;;;;;;;5.73;2.23;;;14.50;84.30;;;-142.21;100.00;112049.66;5019745;28;20454;-73
2022/11/02 05:40:59;;;;;;;7.93;2.93;;;14.50;85.00;;;-142.21;100.00;112049.66;5032832;28;20452;-73
2022/11/02 05:43:28;;;;;;;6.50;2.17;;;14.50;84.50;;;-142.21;100.00;112049.66;5021670;28;20814;-73
2022/11/02 05:45:57;;;;;;;5.33;2.60;;;14.60;84.80;;;-142.21;100.00;112049.66;5030113;28;21026;-73
2022/11/02 05:48:26;;;;;;;9.00;2.77;;;14.70;84.30;;;-142.21;100.00;112049.66;5022344;28;20561;-73
2022/11/02 05:50:56;;;;;;;5.67;2.43;;;14.70;84.20;;;-142.21;100.00;112049.66;5015823;28;20552;-73
2022/11/02 05:53:24;;;;;;;7.80;2.43;;;14.80;84.30;;;-142.21;100.00;112049.66;5020435;28;20450;-73
2022/11/02 05:55:52;;;;;;;5.67;2.00;;;14.80;84.30;;;-142.21;100.00;112049.66;5016421;28;20537;-73
2022/11/02 05:58:19;;;;;;;9.00;2.43;;;14.90;84.10;;;-142.21;100.00;112049.66;5023152;28;20539;-73
2022/11/02 06:00:47;;;;;;;6.90;2.10;;;14.90;83.90;;;-142.21;100.00;112049.66;5016143;28;20446;-73
2022/11/02 06:03:16;;;;;;;4.40;1.93;;;15.00;83.80;;;-142.21;100.00;112049.66;5026659;28;20452;-72
2022/11/02 06:05:43;;;;;;;5.43;2.03;;;14.90;83.80;;;-142.21;100.00;112049.66;4971419;28;20899;-73
2022/11/02 06:08:12;;;;;;;5.33;1.60;;;15.00;83.80;;;-142.21;100.00;112049.66;5013757;28;20841;-73
2022/11/02 06:10:41;;;;;;;6.53;2.53;;;15.00;83.60;;;-142.21;100.00;112049.66;5013957;28;20942;-73
2022/11/02 06:13:08;;;;;;;7.03;2.43;;;15.00;83.70;;;-142.21;100.00;112049.66;5029496;28;20961;-72
2022/11/02 06:15:36;;;;;;;7.10;2.37;;;15.10;83.70;;;-142.21;100.00;112049.66;5026682;28;20458;-73
2022/11/02 06:18:04;;;;;;;4.37;2.33;;;15.10;83.30;;;-142.21;100.00;112049.66;5028221;28;20451;-74
2022/11/02 06:20:32;;;;;;;3.57;1.80;;;15.10;83.50;;;-142.21;100.00;112049.66;5021264;28;20493;-73
2022/11/02 06:22:59;;;;;;;4.93;1.60;;;15.10;83.60;;;-142.21;100.00;112049.66;5032267;28;20451;-73
2022/11/02 06:25:26;;;;;;;8.57;2.10;;;15.10;83.40;;;-142.21;100.00;112049.66;5025990;28;20451;-73
2022/11/02 06:27:56;;;;;;;4.77;2.40;;;15.10;83.10;;;-142.21;100.00;112049.66;5032317;28;20455;-73
2022/11/02 06:30:25;;;;;;;6.03;2.67;;;15.20;83.00;;;-142.21;100.00;112049.66;5025932;28;20441;-73
2022/11/02 06:32:53;;;;;;;14.37;2.83;;;15.20;83.00;;;-142.21;100.00;112049.66;5014278;28;20443;-74
2022/11/02 06:35:23;;;;;;;6.83;2.40;;;15.20;83.00;;;-142.21;100.00;112049.66;5025331;28;20442;-73
2022/11/02 06:37:50;;;;;;;5.13;2.93;;;15.20;83.00;;;-142.21;100.00;112049.66;5028300;28;20532;-73
2022/11/02 06:40:17;;;;;;;6.83;2.50;;;15.20;82.70;;;-142.21;100.00;112049.66;5018565;28;20957;-73
2022/11/02 06:42:44;;;;;;;5.40;2.60;;;15.20;82.50;;;-142.21;100.00;112049.66;5014911;28;20545;-72
2022/11/02 06:45:11;;;;;;;4.73;2.10;;;15.30;82.50;;;-142.21;100.00;112049.66;5014141;28;20937;-73
2022/11/02 06:47:41;;;;;;;6.00;2.47;;;15.30;82.30;;;-142.21;100.00;112049.66;5013508;28;20841;-73
2022/11/02 06:50:09;;;;;;;7.83;2.47;;;15.30;82.40;;;-142.21;100.00;112049.66;5020831;28;20463;-73
2022/11/02 06:52:43;;;;;;;6.57;2.40;;;15.20;82.40;;;-142.21;100.00;112049.66;5030497;28;20782;-73
2022/11/02 06:55:11;;;;;;;5.13;2.13;;;15.10;82.60;;;-142.21;100.00;112049.66;5023037;28;20441;-72
2022/11/02 06:57:44;;;;;;;4.33;2.43;;;15.20;82.60;;;-142.21;100.00;112049.66;5042712;28;20446;-71
2022/11/02 07:00:16;;;;;;;11.57;2.80;;;15.20;82.40;;;-142.21;100.00;112049.66;5018427;28;20453;-73
2022/11/02 07:02:43;;;;;;;6.53;3.03;;;15.20;82.20;;;-142.21;100.00;112049.66;5032025;28;20422;-73
2022/11/02 07:05:11;;;;;;;4.30;2.30;;;15.20;82.20;;;-142.21;100.00;112049.66;5015730;28;20449;-73
2022/11/02 07:07:39;;;;;;;6.07;2.30;;;15.20;82.00;;;-142.21;100.00;112049.66;5012198;28;20500;-74
2022/11/02 07:10:09;;;;;;;6.83;2.50;;;15.20;81.90;;;-142.21;100.00;112049.66;5016769;28;20516;-73
2022/11/02 07:12:36;;;;;;;9.33;3.20;;;15.30;81.90;;;-142.21;100.00;112049.66;5012860;28;20977;-73
2022/11/02 07:15:04;;;;;;;5.13;2.40;;;15.30;81.70;;;-142.21;100.00;112049.66;5015091;28;20446;-72
2022/11/02 07:17:41;;;;;;;6.20;2.70;;;15.40;81.70;;;-142.21;100.00;112049.66;5028304;28;20536;-68
2022/11/02 07:20:10;;;;;;;8.63;2.57;;;15.40;81.40;;;-142.21;100.00;112049.66;5018891;28;20537;-68
2022/11/02 07:22:37;;;;;;;8.07;2.83;;;15.50;81.40;;;-142.21;100.00;112049.66;5028016;28;20894;-69
2022/11/02 07:25:07;;;;;;;6.20;2.53;;;15.50;81.20;;;-142.21;100.00;112049.66;5032286;28;20444;-70
2022/11/02 07:27:39;;;;;;;6.97;2.40;;;15.60;81.30;;;-142.21;100.00;112049.66;5022009;28;20544;-70
2022/11/02 07:30:08;;;;;;;5.87;2.53;;;15.60;81.20;;;-142.21;100.00;112049.66;5044050;28;20460;-70
2022/11/02 07:32:40;;;;;;;8.57;2.63;;;15.60;81.00;;;-142.21;100.00;112049.66;5034585;28;20449;-68
2022/11/02 07:35:10;;;;;;;7.40;2.77;;;15.60;81.00;;;-142.21;100.00;112049.66;5032084;28;20434;-70
2022/11/02 07:37:37;;;;;;;9.60;3.20;;;15.60;81.00;;;-142.21;100.00;112049.66;5052593;28;20438;-69
2022/11/02 07:40:09;;;;;;;8.87;3.07;;;15.70;81.10;;;-142.21;100.00;112049.66;5051735;28;20445;-69
2022/11/02 07:42:36;;;;;;;11.40;9.97;;;15.70;81.00;;;-142.21;100.00;112049.66;5019565;28;20441;-72
2022/11/02 07:45:04;;;;;;;12.43;8.93;;;15.70;80.90;;;-142.21;100.00;112049.66;5022403;28;20520;-69
2022/11/02 07:47:32;;;;;;;7.30;3.20;;;15.70;81.10;;;-142.21;100.00;112049.66;5031689;28;20517;-71
2022/11/02 07:49:59;;;;;;;4.93;2.70;;;15.70;81.10;;;-142.21;100.00;112049.66;5031170;28;20457;-70
2022/11/02 07:52:26;;;;;;;3.63;2.77;;;15.70;81.10;;;-142.21;100.00;112049.66;5025632;28;20530;-70
2022/11/02 07:54:53;;;;;;;7.13;4.07;;;15.70;81.10;;;-142.21;100.00;112049.66;5031597;28;20476;-70
2022/11/02 07:57:22;;;;;;;14.27;8.30;;;15.70;81.00;;;-142.21;100.00;112049.66;5030933;28;20476;-70
2022/11/02 07:59:49;;;;;;;9.63;5.10;;;15.60;81.70;;;-142.21;100.00;112049.66;5031127;28;20840;-71
2022/11/02 08:02:16;;;;;;;6.57;3.03;;;15.60;81.10;;;-142.21;100.00;112049.66;5018727;28;20504;-70
2022/11/02 08:04:44;;;;;;;6.13;2.50;;;15.70;81.20;;;-142.21;100.00;112049.66;5030060;28;20453;-71
2022/11/02 08:07:11;;;;;;;5.17;2.87;;;15.60;81.10;;;-142.21;100.00;112049.66;5029136;28;20487;-70
2022/11/02 08:09:38;;;;;;;5.40;2.50;;;15.70;81.10;;;-142.21;100.00;112049.66;5013285;28;20482;-70
2022/11/02 08:12:06;;;;;;;7.67;2.60;;;15.70;81.90;;;-142.21;100.00;112049.66;5016785;28;20451;-70
2022/11/02 08:14:34;;;;;;;5.70;2.67;;;15.80;81.10;;;-142.21;100.00;112049.66;5033082;28;20789;-70
2022/11/02 08:17:01;;;;;;;9.03;3.00;;;15.70;80.80;;;-142.21;100.00;112049.66;5026650;28;20778;-70
2022/11/02 08:19:29;;;;;;;6.07;2.67;;;15.80;81.00;;;-142.21;100.00;112049.66;5016309;28;20554;-70
2022/11/02 08:21:57;;;;;;;6.60;2.67;;;15.80;80.70;;;-142.21;100.00;112049.66;5016275;28;20990;-69
2022/11/02 08:24:24;;;;;;;7.33;3.07;;;15.80;80.60;;;-142.21;100.00;112049.66;5015753;28;20450;-70
2022/11/02 08:26:51;;;;;;;5.03;2.40;;;15.80;80.30;;;-142.21;100.00;112049.66;5016649;28;20486;-70
2022/11/02 08:29:19;;;;;;;9.10;4.80;;;15.80;80.20;;;-142.21;100.00;112049.66;4980857;28;20488;-70
2022/11/02 08:31:48;;;;;;;6.37;3.47;;;15.70;80.50;;;-142.21;100.00;112049.66;5021400;28;20452;-70
2022/11/02 08:34:15;;;;;;;8.03;3.50;;;15.70;80.60;;;-142.21;100.00;112049.66;5031150;28;20528;-70
2022/11/02 08:36:42;;;;;;;6.17;2.43;;;15.80;80.20;;;-142.21;100.00;112049.66;5024619;28;20520;-70
2022/11/02 08:39:09;;;;;;;6.27;2.40;;;15.90;79.80;;;-142.21;100.00;112049.66;5019917;28;20936;-70
2022/11/02 08:41:37;;;;;;;4.97;3.53;;;16.00;79.70;;;-142.21;100.00;112049.66;5022460;28;20445;-70
2022/11/02 08:44:04;;;;;;;5.17;2.13;;;16.00;79.40;;;-142.21;100.00;112049.66;5016589;28;20441;-70
2022/11/02 08:46:32;;;;;;;7.70;2.53;;;16.10;78.90;;;-142.21;100.00;112049.66;5035537;28;20484;-70
2022/11/02 08:49:00;;;;;;;5.50;1.80;;;16.20;79.10;;;-142.21;100.00;112049.66;5010946;28;20498;-70
2022/11/02 08:51:28;;;;;;;7.40;5.23;;;16.40;78.30;;;-142.21;100.00;112049.66;5017423;28;20533;-70
2022/11/02 08:53:57;;;;;;;8.57;4.23;;;16.50;77.80;;;-142.21;100.00;112049.66;5046695;28;20514;-70
2022/11/02 08:56:24;;;;;;;7.43;3.23;;;16.60;77.20;;;-142.21;100.00;112049.66;5032374;28;20938;-70
2022/11/02 08:58:51;;;;;;;5.13;2.20;;;16.50;76.30;;;-142.21;100.00;112049.66;5034303;28;20528;-70
2022/11/02 09:01:18;;;;;;;7.33;2.50;;;16.50;77.70;;;-142.21;100.00;112049.66;5031715;28;20515;-70
2022/11/02 09:03:45;;;;;;;5.27;3.20;;;16.60;77.00;;;-142.21;98.67;112049.66;5017981;28;20481;-69
2022/11/02 09:06:14;;;;;;;3.97;1.97;;;16.70;76.10;;;-142.21;98.66;112049.66;5021656;28;20808;-70
2022/11/02 09:08:41;;;;;;;6.80;2.90;;;16.70;75.60;;;-142.21;98.57;112049.66;5015297;28;20509;-70
2022/11/02 09:11:11;;;;;;;9.20;6.17;;;16.80;75.40;;;-142.21;97.98;112049.66;5018317;28;20499;-70
2022/11/02 09:13:39;;;;;;;5.73;3.17;;;16.80;75.00;;;-142.21;98.09;112049.66;5032211;28;20790;-70
2022/11/02 09:16:07;;;;;;;8.43;4.63;;;16.70;75.20;;;-142.21;96.95;112049.66;5014347;28;20453;-70
2022/11/02 09:18:34;;;;;;;8.77;2.77;;;16.60;74.40;;;-142.21;97.17;112049.66;5025035;28;20450;-70
2022/11/02 09:21:03;;;;;;;10.70;4.60;;;16.60;75.20;;;-142.21;97.89;112049.66;5024564;28;21017;-70
2022/11/02 09:23:32;;;;;;;6.13;2.50;;;16.60;75.90;;;-142.21;96.75;112049.66;5023602;28;20550;-69
2022/11/02 09:25:59;;;;;;;6.57;3.97;;;16.70;75.20;;;-142.21;96.38;112049.66;5024906;28;20581;-70
2022/11/02 09:28:27;;;;;;;8.80;3.20;;;16.70;74.90;;;-142.21;95.52;112049.66;5025178;28;20851;-70
2022/11/02 09:30:54;;;;;;;7.40;4.07;;;16.70;74.00;;;-142.21;94.66;112049.66;5013504;28;20938;-69
2022/11/02 09:33:22;;;;;;;9.07;3.23;;;16.70;74.80;;;-142.21;95.10;112049.66;5015135;28;20450;-70
2022/11/02 09:35:50;;;;;;;6.83;2.67;;;16.80;74.40;;;-142.21;94.81;112049.66;5018331;28;20537;-70
2022/11/02 09:38:18;;;;;;;5.63;2.50;;;17.10;74.20;;;-142.21;92.92;112049.66;5023695;28;20439;-69
2022/11/02 09:41:01;;;;;;;3.97;2.47;;;17.40;73.00;;;-142.21;92.52;112049.66;5024365;28;20540;-69
2022/11/02 09:43:45;;;;;;;8.30;2.40;;;17.60;72.60;;;-142.21;90.93;112049.66;5013905;28;20456;-70
2022/11/02 09:46:18;;;;;;;6.03;2.20;;;17.70;71.50;;;-142.21;89.60;112049.66;5031306;28;20804;-70
2022/11/02 09:48:53;;;;;;;11.30;4.60;;;17.80;70.90;;;-142.21;88.91;112049.66;5033126;28;20516;-69
2022/11/02 09:51:25;;;;;;;5.90;3.33;;;17.90;70.40;;;-142.21;87.58;112049.66;5033610;28;20476;-70
2022/11/02 09:54:03;;;;;;;4.67;2.10;;;17.80;69.50;;;-142.21;89.29;112049.66;5032789;28;20766;-70
2022/11/02 09:56:34;;;;;;;8.17;3.73;;;17.80;70.40;;;-142.21;89.49;112049.66;5032266;28;20491;-70
2022/11/02 09:59:11;;;;;;;8.67;5.17;;;17.80;69.80;;;-142.21;89.37;112049.66;5030195;28;20521;-70
2022/11/02 10:01:56;;;;;;;8.00;4.70;;;17.70;69.70;;;-142.21;88.69;112049.66;5027908;28;20524;-70
2022/11/02 10:05:01;;;;;;;7.70;3.23;;;17.60;70.10;;;-142.21;89.09;112049.66;5033453;28;20430;-69
2022/11/02 10:07:49;;;;;;;7.40;2.83;;;17.40;69.40;;;-142.21;88.51;112049.66;5013422;28;20470;-70
2022/11/02 10:10:27;;;;;;;16.23;6.83;;;17.30;69.80;;;-142.21;88.51;112049.66;5015598;28;20484;-69
2022/11/02 10:13:16;;;;;;;4.90;2.47;;;17.30;69.90;;;-142.21;86.07;112049.66;5018239;28;20470;-70
2022/11/02 10:15:49;;;;;;;5.57;2.53;;;17.60;68.80;;;-142.21;85.23;112049.66;5019122;28;20534;-70
2022/11/02 10:18:26;;;;;;;11.93;4.20;;;18.00;68.20;;;-142.21;84.02;112049.66;5028379;28;20529;-70
2022/11/02 10:20:58;;;;;;;8.67;3.13;;;18.20;67.60;;;-142.21;82.81;112049.66;5032307;28;20448;-70